Map

Track Data

SID SEASON NUMBER BASIN SUBBASIN NAME ISO_TIME NATURE LAT LON WMO_WIND WMO_PRES WMO_AGENCY TRACK_TYPE DIST2LAND LANDFALL IFLAG USA_AGENCY USA_ATCF_ID USA_LAT USA_LON USA_RECORD USA_STATUS USA_WIND USA_PRES USA_SSHS USA_R34_NE USA_R34_SE USA_R34_SW USA_R34_NW USA_R50_NE USA_R50_SE USA_R50_SW USA_R50_NW USA_R64_NE USA_R64_SE USA_R64_SW USA_R64_NW USA_POCI USA_ROCI USA_RMW USA_EYE TOKYO_LAT TOKYO_LON TOKYO_GRADE TOKYO_WIND TOKYO_PRES TOKYO_R50_DIR TOKYO_R50_LONG TOKYO_R50_SHORT TOKYO_R30_DIR TOKYO_R30_LONG TOKYO_R30_SHORT TOKYO_LAND CMA_LAT CMA_LON CMA_CAT CMA_WIND CMA_PRES HKO_LAT HKO_LON HKO_CAT HKO_WIND HKO_PRES NEWDELHI_LAT NEWDELHI_LON NEWDELHI_GRADE NEWDELHI_WIND NEWDELHI_PRES NEWDELHI_CI NEWDELHI_DP NEWDELHI_POCI REUNION_LAT REUNION_LON REUNION_TYPE REUNION_WIND REUNION_PRES REUNION_TNUM REUNION_CI REUNION_RMW REUNION_R34_NE REUNION_R34_SE REUNION_R34_SW REUNION_R34_NW REUNION_R50_NE REUNION_R50_SE REUNION_R50_SW REUNION_R50_NW REUNION_R64_NE REUNION_R64_SE REUNION_R64_SW REUNION_R64_NW BOM_LAT BOM_LON BOM_TYPE BOM_WIND BOM_PRES BOM_TNUM BOM_CI BOM_RMW BOM_R34_NE BOM_R34_SE BOM_R34_SW BOM_R34_NW BOM_R50_NE BOM_R50_SE BOM_R50_SW BOM_R50_NW BOM_R64_NE BOM_R64_SE BOM_R64_SW BOM_R64_NW BOM_ROCI BOM_POCI BOM_EYE BOM_POS_METHOD BOM_PRES_METHOD NADI_LAT NADI_LON NADI_CAT NADI_WIND NADI_PRES WELLINGTON_LAT WELLINGTON_LON WELLINGTON_WIND WELLINGTON_PRES DS824_LAT DS824_LON DS824_STAGE DS824_WIND DS824_PRES TD9636_LAT TD9636_LON TD9636_STAGE TD9636_WIND TD9636_PRES TD9635_LAT TD9635_LON TD9635_WIND TD9635_PRES TD9635_ROCI NEUMANN_LAT NEUMANN_LON NEUMANN_CLASS NEUMANN_WIND NEUMANN_PRES MLC_LAT MLC_LON MLC_CLASS MLC_WIND MLC_PRES USA_GUST BOM_GUST BOM_GUST_PER REUNION_GUST REUNION_GUST_PER USA_SEAHGT USA_SEARAD_NE USA_SEARAD_SE USA_SEARAD_SW USA_SEARAD_NW STORM_SPEED STORM_DIR
1900238N15118 1900 21 WP MM NOT_NAMED 1900-08-25 16:00:00 NR 15.3000 117.700 main 228 224 __________O___ -1 15.3000 117.700 2 2 0
1900238N15118 1900 21 WP MM NOT_NAMED 1900-08-25 18:00:00 NR 15.3708 117.725 main 224 210 __________P___ -1 15.3708 117.725 2 2 18
1900238N15118 1900 21 WP MM NOT_NAMED 1900-08-25 21:00:00 NR 15.4880 117.760 main 210 208 __________P___ -1 15.4880 117.760 2 3 12
1900238N15118 1900 21 WP MM NOT_NAMED 1900-08-26 00:00:00 NR 15.6333 117.786 main 208 204 __________P___ -1 15.6333 117.786 2 3 7
1900238N15118 1900 21 WP MM NOT_NAMED 1900-08-26 03:00:00 NR 15.8236 117.799 main 204 203 __________P___ -1 15.8236 117.799 2 4 0
1900238N15118 1900 21 WP MM NOT_NAMED 1900-08-26 04:00:00 NR 15.9000 117.800 main 203 203 __________O___ -1 15.9000 117.800 2 5 0
1900238N15118 1900 21 WP MM NOT_NAMED 1900-08-26 06:00:00 NR 16.0741 117.795 main 203 203 __________P___ -1 16.0741 117.795 2 6 358
1900238N15118 1900 21 WP MM NOT_NAMED 1900-08-26 09:00:00 NR 16.3793 117.774 main 207 207 __________P___ -1 16.3793 117.774 2 7 355
1900238N15118 1900 21 WP MM NOT_NAMED 1900-08-26 12:00:00 NR 16.7208 117.744 main 227 227 __________P___ -1 16.7208 117.744 2 7 356
1900238N15118 1900 21 WP MM NOT_NAMED 1900-08-26 15:00:00 NR 17.0797 117.711 main 240 240 __________P___ -1 17.0797 117.711 2 7 355
1900238N15118 1900 21 WP MM NOT_NAMED 1900-08-26 16:00:00 NR 17.2000 117.700 main 245 245 __________O___ -1 17.2000 117.700 2 7 0
1900238N15118 1900 21 WP MM NOT_NAMED 1900-08-26 18:00:00 NR 17.4224 117.686 main 255 255 __________P___ -1 17.4224 117.686 2 7 356
1900238N15118 1900 21 WP MM NOT_NAMED 1900-08-26 21:00:00 NR 17.7621 117.665 main 276 276 __________P___ -1 17.7621 117.665 2 7 357
1900238N15118 1900 21 WP MM NOT_NAMED 1900-08-27 00:00:00 NR 18.1121 117.641 main 291 291 __________P___ -1 18.1121 117.641 2 7 356
1900238N15118 1900 21 WP MM NOT_NAMED 1900-08-27 03:00:00 NR 18.4754 117.612 main 302 302 __________P___ -1 18.4754 117.612 2 7 356
1900238N15118 1900 21 WP MM NOT_NAMED 1900-08-27 04:00:00 NR 18.6000 117.600 main 306 306 __________O___ -1 18.6000 117.600 2 8 353
1900238N15118 1900 21 WP MM NOT_NAMED 1900-08-27 06:00:00 NR 18.8500 117.570 main 318 318 __________P___ -1 18.8500 117.570 2 8 353
1900238N15118 1900 21 WP MM NOT_NAMED 1900-08-27 09:00:00 NR 19.2375 117.518 main 338 341 __________P___ -1 19.2375 117.518 2 8 353
1900238N15118 1900 21 WP MM NOT_NAMED 1900-08-27 12:00:00 NR 19.6400 117.464 main 352 326 __________P___ -1 19.6400 117.464 2 8 353
1900238N15118 1900 21 WP MM NOT_NAMED 1900-08-27 15:00:00 NR 20.0575 117.415 main 326 315 __________P___ -1 20.0575 117.415 2 9 355
1900238N15118 1900 21 WP MM NOT_NAMED 1900-08-27 16:00:00 NR 20.2000 117.400 main 315 283 __________O___ -1 20.2000 117.400 2 9 0
1900238N15118 1900 21 WP MM NOT_NAMED 1900-08-27 18:00:00 NR 20.4964 117.385 main 283 231 __________P___ -1 20.4964 117.385 2 9 357
1900238N15118 1900 21 WP MM NOT_NAMED 1900-08-27 21:00:00 NR 20.9539 117.370 main 231 191 __________P___ -1 20.9539 117.370 2 9 358
1900238N15118 1900 21 WP MM NOT_NAMED 1900-08-28 00:00:00 NR 21.4128 117.351 main 191 138 __________P___ -1 21.4128 117.351 2 9 356
1900238N15118 1900 21 WP MM NOT_NAMED 1900-08-28 03:00:00 NR 21.8576 117.317 main 138 129 __________P___ -1 21.8576 117.317 2 9 357
1900238N15118 1900 21 WP MM NOT_NAMED 1900-08-28 04:00:00 NR 22.0000 117.300 main 129 98 __________O___ -1 22.0000 117.300 2 8 350
1900238N15118 1900 21 WP MM NOT_NAMED 1900-08-28 06:00:00 NR 22.2567 117.245 main 98 70 __________P___ -1 22.2567 117.245 2 8 347
1900238N15118 1900 21 WP MM NOT_NAMED 1900-08-28 09:00:00 NR 22.6225 117.144 main 70 39 __________P___ -1 22.6225 117.144 2 8 345
1900238N15118 1900 21 WP MM NOT_NAMED 1900-08-28 12:00:00 NR 22.9848 117.034 main 39 0 __________P___ -1 22.9848 117.034 2 8 345
1900238N15118 1900 21 WP MM NOT_NAMED 1900-08-28 15:00:00 NR 23.3653 116.930 main 0 0 __________P___ -1 23.3653 116.930 2 8 346
1900238N15118 1900 21 WP MM NOT_NAMED 1900-08-28 16:00:00 NR 23.5000 116.900 main 10 0 __________O___ -1 23.5000 116.900 2 9 350
1900238N15118 1900 21 WP MM NOT_NAMED 1900-08-28 18:00:00 NR 23.7844 116.848 main 0 0 __________P___ -1 23.7844 116.848 2 9 352
1900238N15118 1900 21 WP MM NOT_NAMED 1900-08-28 21:00:00 NR 24.2429 116.788 main 0 0 __________P___ -1 24.2429 116.788 2 10 354
1900238N15118 1900 21 WP MM NOT_NAMED 1900-08-29 00:00:00 NR 24.7291 116.745 main 0 0 __________P___ -1 24.7291 116.745 2 10 356
1900238N15118 1900 21 WP MM NOT_NAMED 1900-08-29 03:00:00 NR 25.2312 116.711 main 0 0 __________P___ -1 25.2312 116.711 2 10 356
1900238N15118 1900 21 WP MM NOT_NAMED 1900-08-29 04:00:00 NR 25.4000 116.700 main 0 __________O___ -1 25.4000 116.700 7 10 0

Digital Typhoon Data and Search

About IBTrACS Database

This database is a web-friendly format of International Best Track Archive for Climate Stewardship (IBTrACS), a global best track data archive curated by NOAA dating back to 1842.

Updated: 2021-10-08